createdAt,value
2023-02-14T00:01:33.809Z,4.90
2023-02-14T00:04:02.090Z,5.40
2023-02-14T00:06:31.803Z,5.57
2023-02-14T00:08:59.947Z,5.50
2023-02-14T00:11:28.097Z,5.30
2023-02-14T00:14:23.794Z,5.63
2023-02-14T00:16:51.992Z,6.50
2023-02-14T00:19:21.088Z,5.60
2023-02-14T00:21:49.932Z,5.27
2023-02-14T00:24:18.937Z,4.93
2023-02-14T00:26:47.154Z,6.17
2023-02-14T00:29:18.037Z,5.10
2023-02-14T00:31:46.313Z,5.40
2023-02-14T00:34:16.032Z,5.80
2023-02-14T00:36:44.566Z,5.63
2023-02-14T00:39:13.594Z,5.63
2023-02-14T00:41:42.305Z,6.30
2023-02-14T00:44:11.025Z,6.40
2023-02-14T00:46:40.518Z,5.50
2023-02-14T00:49:08.716Z,5.57
2023-02-14T00:51:36.987Z,5.97
2023-02-14T00:54:05.249Z,6.63
2023-02-14T00:56:33.865Z,6.53
2023-02-14T00:59:02.061Z,6.97
2023-02-14T01:01:30.194Z,7.20
2023-02-14T01:03:59.909Z,7.17
2023-02-14T01:06:28.125Z,7.13
2023-02-14T01:08:56.398Z,7.57
2023-02-14T01:11:25.521Z,7.27
2023-02-14T01:13:53.998Z,6.80
2023-02-14T01:16:23.384Z,7.60
2023-02-14T01:18:51.771Z,7.87
2023-02-14T01:21:21.830Z,7.23
2023-02-14T01:23:51.432Z,8.23
2023-02-14T01:26:19.603Z,7.80
2023-02-14T01:28:47.981Z,7.33
2023-02-14T01:31:17.254Z,7.10
2023-02-14T01:33:46.128Z,7.50
2023-02-14T01:36:17.670Z,7.57
2023-02-14T01:38:47.277Z,7.93
2023-02-14T01:41:15.901Z,7.30
2023-02-14T01:43:54.371Z,8.17
2023-02-14T01:46:22.586Z,6.97
2023-02-14T01:48:50.876Z,6.93
2023-02-14T01:51:20.438Z,7.33
2023-02-14T01:53:51.338Z,7.13
2023-02-14T01:56:21.562Z,6.90
2023-02-14T01:58:50.189Z,7.70
2023-02-14T02:01:19.301Z,7.37
2023-02-14T02:03:49.561Z,7.20
2023-02-14T02:06:19.047Z,6.80
2023-02-14T02:08:51.784Z,6.23
2023-02-14T02:11:19.931Z,6.83
2023-02-14T02:13:48.073Z,6.63
2023-02-14T02:16:23.751Z,6.87
2023-02-14T02:18:58.650Z,6.27
2023-02-14T02:21:56.783Z,7.30
2023-02-14T02:24:37.951Z,6.53
2023-02-14T02:27:13.385Z,6.80
2023-02-14T02:29:59.327Z,6.83
2023-02-14T02:32:40.226Z,7.10
2023-02-14T02:35:19.594Z,6.83
2023-02-14T02:37:51.953Z,6.73
2023-02-14T02:40:26.540Z,7.07
2023-02-14T02:42:58.402Z,6.67
2023-02-14T02:45:29.309Z,6.37
2023-02-14T02:47:59.938Z,5.83
2023-02-14T02:50:48.896Z,6.83
2023-02-14T02:53:20.800Z,7.20
2023-02-14T02:56:09.591Z,6.73
2023-02-14T02:58:39.052Z,6.60
2023-02-14T03:01:10.472Z,6.90
2023-02-14T03:03:57.024Z,6.30
2023-02-14T03:06:26.528Z,6.40
2023-02-14T03:08:54.715Z,6.43
2023-02-14T03:11:25.510Z,6.10
2023-02-14T03:14:12.056Z,6.60
2023-02-14T03:16:43.386Z,5.77
2023-02-14T03:19:34.879Z,5.83
2023-02-14T03:22:06.997Z,5.40
2023-02-14T03:24:41.611Z,5.37
2023-02-14T03:27:14.356Z,4.97
2023-02-14T03:29:53.939Z,5.23
2023-02-14T03:32:28.220Z,4.53
2023-02-14T03:34:59.799Z,4.63
2023-02-14T03:37:32.485Z,4.80
2023-02-14T03:40:05.267Z,4.23
2023-02-14T03:42:34.782Z,4.07
2023-02-14T03:45:04.355Z,4.33
2023-02-14T03:47:34.328Z,3.87
2023-02-14T03:50:04.746Z,4.67
2023-02-14T03:52:35.588Z,4.17
2023-02-14T03:55:04.407Z,4.07
2023-02-14T03:57:34.355Z,3.60
2023-02-14T04:00:02.514Z,4.27
2023-02-14T04:02:33.277Z,4.80
2023-02-14T04:05:02.574Z,3.93
2023-02-14T04:07:30.721Z,3.87
2023-02-14T04:10:00.251Z,4.63
2023-02-14T04:12:37.493Z,3.70
2023-02-14T04:15:06.724Z,3.90
2023-02-14T04:17:52.344Z,3.83
2023-02-14T04:20:20.821Z,4.03
2023-02-14T04:22:49.029Z,3.60
2023-02-14T04:25:18.646Z,4.20
2023-02-14T04:27:46.819Z,3.77
2023-02-14T04:30:16.465Z,3.77
2023-02-14T04:32:44.662Z,3.63
2023-02-14T04:35:13.093Z,4.10
2023-02-14T04:37:41.280Z,3.63
2023-02-14T04:40:10.130Z,3.50
2023-02-14T04:42:39.626Z,3.70
2023-02-14T04:45:08.158Z,3.50
2023-02-14T04:47:36.312Z,4.07
2023-02-14T04:50:04.619Z,3.37
2023-02-14T04:52:32.793Z,4.07
2023-02-14T04:55:00.950Z,4.13
2023-02-14T04:57:29.090Z,3.67
2023-02-14T04:59:58.672Z,3.67
2023-02-14T05:02:26.970Z,3.90
2023-02-14T05:04:55.171Z,4.20
2023-02-14T05:07:23.345Z,3.97
2023-02-14T05:09:51.673Z,3.70
2023-02-14T05:12:19.833Z,4.03
2023-02-14T05:14:48.152Z,3.93
2023-02-14T05:17:17.652Z,4.33
2023-02-14T05:19:45.795Z,4.33
2023-02-14T05:22:13.978Z,4.27
2023-02-14T05:24:42.128Z,4.60
2023-02-14T05:27:11.921Z,4.30
2023-02-14T05:29:40.071Z,4.17
2023-02-14T05:32:08.478Z,4.47
2023-02-14T05:34:38.045Z,5.10
2023-02-14T05:37:06.197Z,4.20
2023-02-14T05:39:34.360Z,5.23
2023-02-14T05:42:03.155Z,4.80
2023-02-14T05:44:31.316Z,4.90
2023-02-14T05:46:59.483Z,5.30
2023-02-14T05:49:27.680Z,5.00
2023-02-14T05:51:57.180Z,5.00
2023-02-14T05:54:25.326Z,4.30
2023-02-14T05:56:53.471Z,5.10
2023-02-14T05:59:21.732Z,5.07
2023-02-14T06:01:50.173Z,4.93
2023-02-14T06:04:18.363Z,4.63
2023-02-14T06:06:53.031Z,4.50
2023-02-14T06:09:23.186Z,4.67
2023-02-14T06:11:51.865Z,4.77
2023-02-14T06:14:22.686Z,5.33
2023-02-14T06:16:56.602Z,4.70
2023-02-14T06:19:26.316Z,4.87
2023-02-14T06:21:56.541Z,4.70
2023-02-14T06:24:26.132Z,4.40
2023-02-14T06:26:54.294Z,4.50
2023-02-14T06:29:22.815Z,4.30
2023-02-14T06:31:51.058Z,4.63
2023-02-14T06:34:19.322Z,4.63
2023-02-14T06:36:47.466Z,4.47
2023-02-14T06:39:15.825Z,4.80
2023-02-14T06:41:45.313Z,4.60
2023-02-14T06:44:13.482Z,5.00
2023-02-14T06:46:41.645Z,4.40
2023-02-14T06:49:11.022Z,4.37
2023-02-14T06:51:39.160Z,4.67
2023-02-14T06:54:07.372Z,4.30
2023-02-14T06:56:35.692Z,3.83
2023-02-14T06:59:05.711Z,4.60
2023-02-14T07:01:33.876Z,4.50
2023-02-14T07:04:02.140Z,4.00
2023-02-14T07:06:30.307Z,4.47
2023-02-14T07:08:58.441Z,4.87
2023-02-14T07:11:28.530Z,4.70
2023-02-14T07:13:56.724Z,4.47
2023-02-14T07:16:26.363Z,4.33
2023-02-14T07:18:54.525Z,4.17
2023-02-14T07:21:22.668Z,4.77
2023-02-14T07:23:50.805Z,4.30
2023-02-14T07:26:19.005Z,4.43
2023-02-14T07:28:49.014Z,4.73
2023-02-14T07:31:17.281Z,4.30
2023-02-14T07:33:46.880Z,4.60
2023-02-14T07:36:15.083Z,4.83
2023-02-14T07:38:43.265Z,5.40
2023-02-14T07:41:11.437Z,5.30
2023-02-14T07:43:39.912Z,5.17
2023-02-14T07:46:08.483Z,5.40
2023-02-14T07:48:36.664Z,4.80
2023-02-14T07:51:06.320Z,4.63
2023-02-14T07:53:34.532Z,5.17
2023-02-14T07:56:02.747Z,4.57
2023-02-14T07:58:30.988Z,5.10
2023-02-14T08:00:59.585Z,4.53
2023-02-14T08:03:27.969Z,4.33
2023-02-14T08:05:57.966Z,4.33
2023-02-14T08:08:28.883Z,4.60
2023-02-14T08:10:57.147Z,4.33
2023-02-14T08:13:25.464Z,4.13
2023-02-14T08:16:05.878Z,4.40
2023-02-14T08:18:36.749Z,4.30
2023-02-14T08:21:05.294Z,4.77
2023-02-14T08:23:34.840Z,4.57
2023-02-14T08:26:03.030Z,4.67
2023-02-14T08:28:32.899Z,4.07
2023-02-14T08:31:01.440Z,4.47
2023-02-14T08:33:29.915Z,4.50
2023-02-14T08:35:58.068Z,4.50
2023-02-14T08:38:26.246Z,4.33
2023-02-14T08:40:55.785Z,5.23
2023-02-14T08:43:23.941Z,5.73
2023-02-14T08:45:54.611Z,5.57
2023-02-14T08:48:23.469Z,4.33
2023-02-14T08:50:51.602Z,4.43
2023-02-14T08:53:19.756Z,4.77
2023-02-14T08:55:47.919Z,4.93
2023-02-14T08:58:17.425Z,5.53
2023-02-14T09:00:45.640Z,6.00
2023-02-14T09:03:13.815Z,5.80
2023-02-14T09:05:42.006Z,5.40
2023-02-14T09:08:10.230Z,5.57
2023-02-14T09:10:38.446Z,5.70
2023-02-14T09:13:07.269Z,5.87
2023-02-14T09:15:36.828Z,6.20
2023-02-14T09:18:05.014Z,5.60
2023-02-14T09:20:33.268Z,6.20
2023-02-14T09:23:01.577Z,7.27
2023-02-14T09:25:29.713Z,6.37
2023-02-14T09:27:57.987Z,6.63
2023-02-14T09:30:26.212Z,6.83
2023-02-14T09:32:56.136Z,6.60
2023-02-14T09:35:41.914Z,7.20
2023-02-14T09:38:11.671Z,6.70
2023-02-14T09:40:39.830Z,9.13
2023-02-14T09:43:11.542Z,8.37
2023-02-14T09:45:40.176Z,7.80
2023-02-14T09:48:12.554Z,8.90
2023-02-14T09:50:44.304Z,8.07
2023-02-14T09:53:18.061Z,8.60
2023-02-14T09:55:49.481Z,8.43
2023-02-14T09:58:20.131Z,8.97
2023-02-14T10:00:50.242Z,8.93
2023-02-14T10:03:33.392Z,9.70
2023-02-14T10:06:06.903Z,8.63
2023-02-14T10:08:40.897Z,8.87
2023-02-14T10:11:11.706Z,9.00
2023-02-14T10:13:42.749Z,8.80
2023-02-14T10:16:13.233Z,8.70
2023-02-14T10:18:44.293Z,8.83
2023-02-14T10:21:18.599Z,7.80
2023-02-14T10:23:51.088Z,7.17
2023-02-14T10:26:22.439Z,7.53
2023-02-14T10:28:51.280Z,7.90
2023-02-14T10:31:21.826Z,5.77
2023-02-14T10:33:57.491Z,6.27
2023-02-14T10:36:40.786Z,6.70
2023-02-14T10:39:13.594Z,8.13
2023-02-14T10:41:49.013Z,7.10
2023-02-14T10:44:22.697Z,7.00
2023-02-14T10:46:53.655Z,6.47
2023-02-14T10:49:28.716Z,6.50
2023-02-14T10:52:03.083Z,7.77
2023-02-14T10:54:35.519Z,7.90
2023-02-14T10:57:04.737Z,6.43
2023-02-14T10:59:35.788Z,7.33
2023-02-14T11:02:04.046Z,7.33
2023-02-14T11:04:33.268Z,7.80
2023-02-14T11:07:02.786Z,7.57
2023-02-14T11:09:30.960Z,7.20
2023-02-14T11:12:00.696Z,7.63
2023-02-14T11:14:30.034Z,7.53
2023-02-14T11:16:59.112Z,7.60
2023-02-14T11:19:28.327Z,8.10
2023-02-14T11:21:57.495Z,7.47
2023-02-14T11:24:29.759Z,7.63
2023-02-14T11:27:00.640Z,8.73
2023-02-14T11:29:30.715Z,8.30
2023-02-14T11:32:07.997Z,7.67
2023-02-14T11:34:37.172Z,6.83
2023-02-14T11:37:05.313Z,8.53
2023-02-14T11:39:36.178Z,7.60
2023-02-14T11:42:05.770Z,8.23
2023-02-14T11:44:37.213Z,7.93
2023-02-14T11:47:19.302Z,8.33
2023-02-14T11:49:57.368Z,8.17
2023-02-14T11:52:26.752Z,8.30
2023-02-14T11:54:56.970Z,8.87
2023-02-14T11:57:28.614Z,8.93
2023-02-14T11:59:57.889Z,8.37
2023-02-14T12:02:29.938Z,7.60
2023-02-14T12:05:00.785Z,8.73
2023-02-14T12:07:31.992Z,9.37
2023-02-14T12:10:29.435Z,7.97
2023-02-14T12:12:59.735Z,9.00
2023-02-14T12:15:34.244Z,8.67
2023-02-14T12:18:21.822Z,9.40
2023-02-14T12:20:57.590Z,8.97
2023-02-14T12:23:31.695Z,9.70
2023-02-14T12:26:05.540Z,10.00
2023-02-14T12:28:38.508Z,9.23
2023-02-14T12:31:11.956Z,9.77
2023-02-14T12:33:40.490Z,9.77
2023-02-14T12:36:15.393Z,9.73
2023-02-14T12:38:53.452Z,10.03
2023-02-14T12:41:29.403Z,10.70
2023-02-14T12:43:58.328Z,10.80
2023-02-14T12:46:44.410Z,10.23
2023-02-14T12:49:23.942Z,9.60
2023-02-14T12:51:56.286Z,9.87
2023-02-14T12:54:32.419Z,9.73
2023-02-14T12:57:06.491Z,10.93
2023-02-14T12:59:40.550Z,10.17
2023-02-14T13:02:26.804Z,9.50
2023-02-14T13:05:01.451Z,10.40
2023-02-14T13:07:40.268Z,10.50
2023-02-14T13:10:15.350Z,10.00
2023-02-14T13:12:47.478Z,10.57
2023-02-14T13:15:20.445Z,9.47
2023-02-14T13:17:52.067Z,10.20
2023-02-14T13:20:38.100Z,10.57
2023-02-14T13:23:07.598Z,10.93
2023-02-14T13:25:39.114Z,10.07
2023-02-14T13:28:09.280Z,10.30
2023-02-14T13:30:38.797Z,10.50
2023-02-14T13:33:09.369Z,10.53
2023-02-14T13:35:37.643Z,10.93
2023-02-14T13:38:08.361Z,10.17
2023-02-14T13:40:37.716Z,9.50
2023-02-14T13:43:06.026Z,10.30
2023-02-14T13:45:57.987Z,10.10
2023-02-14T13:48:28.901Z,10.10
2023-02-14T13:50:58.285Z,9.47
2023-02-14T13:53:31.737Z,9.87
2023-02-14T13:56:00.392Z,10.10
2023-02-14T13:58:29.461Z,10.03
2023-02-14T14:00:57.910Z,10.00
2023-02-14T14:03:46.632Z,10.23
2023-02-14T14:06:16.157Z,10.13
2023-02-14T14:08:48.385Z,9.90
2023-02-14T14:12:01.749Z,9.00
2023-02-14T14:14:39.819Z,9.80
2023-02-14T14:17:23.093Z,9.47
2023-02-14T14:19:51.516Z,9.77
2023-02-14T14:22:22.325Z,9.47
2023-02-14T14:24:59.274Z,9.27
2023-02-14T14:27:31.224Z,8.50
2023-02-14T14:30:00.535Z,8.20
2023-02-14T14:32:30.626Z,9.47
2023-02-14T14:34:59.838Z,9.87
2023-02-14T14:37:30.296Z,9.10
2023-02-14T14:39:59.467Z,8.87
2023-02-14T14:42:28.975Z,9.20
2023-02-14T14:44:59.132Z,8.63
2023-02-14T14:47:28.409Z,9.23
2023-02-14T14:50:00.675Z,9.30
2023-02-14T14:52:35.053Z,8.63
2023-02-14T14:55:04.206Z,9.43
2023-02-14T14:57:32.445Z,9.53
2023-02-14T15:00:09.498Z,8.90
2023-02-14T15:02:37.725Z,9.80
2023-02-14T15:05:15.078Z,9.63
2023-02-14T15:07:44.624Z,8.80
2023-02-14T15:10:22.739Z,10.20
2023-02-14T15:13:09.263Z,10.00
2023-02-14T15:15:37.962Z,9.77
2023-02-14T15:18:07.060Z,9.90
2023-02-14T15:20:36.853Z,10.60
2023-02-14T15:23:06.444Z,9.87
2023-02-14T15:25:37.126Z,10.70
2023-02-14T15:28:05.364Z,11.10
2023-02-14T15:30:37.716Z,9.70
2023-02-14T15:33:06.747Z,11.07
2023-02-14T15:35:35.710Z,10.63
2023-02-14T15:38:05.992Z,11.47
2023-02-14T15:40:38.679Z,11.10
2023-02-14T15:43:15.428Z,11.53
2023-02-14T15:45:44.874Z,11.33
2023-02-14T15:48:16.150Z,10.77
2023-02-14T15:50:46.484Z,11.60
2023-02-14T15:53:29.206Z,10.87
2023-02-14T15:56:04.675Z,11.17
2023-02-14T15:58:35.371Z,11.10
2023-02-14T16:01:04.701Z,11.27
2023-02-14T16:03:35.848Z,11.13
2023-02-14T16:06:04.639Z,11.27
2023-02-14T16:08:33.728Z,11.43
2023-02-14T16:11:05.836Z,11.90
2023-02-14T16:13:35.060Z,11.33
2023-02-14T16:16:04.351Z,11.43
2023-02-14T16:18:36.754Z,12.27
2023-02-14T16:21:11.921Z,11.73
2023-02-14T16:23:40.249Z,11.60
2023-02-14T16:26:10.151Z,11.40
2023-02-14T16:28:38.574Z,12.23
2023-02-14T16:31:10.225Z,12.50
2023-02-14T16:33:39.292Z,12.03
2023-02-14T16:36:14.031Z,11.30
2023-02-14T16:38:43.663Z,12.67
2023-02-14T16:41:17.909Z,12.20
2023-02-14T16:43:46.271Z,12.50
2023-02-14T16:46:15.248Z,12.63
2023-02-14T16:48:43.686Z,12.23
2023-02-14T16:51:12.430Z,12.47
2023-02-14T16:53:42.176Z,13.57
2023-02-14T16:56:12.249Z,14.23
2023-02-14T16:58:41.841Z,14.63
2023-02-14T17:01:10.068Z,13.30
2023-02-14T17:03:39.897Z,13.13
2023-02-14T17:06:08.762Z,14.23
2023-02-14T17:08:37.144Z,12.60
2023-02-14T17:11:06.785Z,13.20
2023-02-14T17:13:36.389Z,14.00
2023-02-14T17:16:07.356Z,11.83
2023-02-14T17:18:36.981Z,11.57
2023-02-14T17:21:06.293Z,10.97
2023-02-14T17:23:34.436Z,11.00
2023-02-14T17:26:02.594Z,11.00
2023-02-14T17:28:30.749Z,11.53
2023-02-14T17:31:00.824Z,11.93
2023-02-14T17:33:31.344Z,11.37
2023-02-14T17:36:05.143Z,11.17
2023-02-14T17:38:33.290Z,12.00
2023-02-14T17:41:01.760Z,11.77
2023-02-14T17:43:30.067Z,11.67
2023-02-14T17:45:58.244Z,12.13
2023-02-14T17:48:26.415Z,12.43
2023-02-14T17:50:55.897Z,12.67
2023-02-14T17:53:24.072Z,13.07
2023-02-14T17:55:52.229Z,12.87
2023-02-14T17:58:20.372Z,12.63
2023-02-14T18:00:48.506Z,13.00
2023-02-14T18:03:16.665Z,12.23
2023-02-14T18:05:44.789Z,11.47
2023-02-14T18:08:14.274Z,12.97
2023-02-14T18:10:42.405Z,12.80
2023-02-14T18:13:10.543Z,12.80
2023-02-14T18:15:38.680Z,12.53
2023-02-14T18:18:06.894Z,12.97
2023-02-14T18:20:35.032Z,13.10
2023-02-14T18:23:07.028Z,12.90
2023-02-14T18:25:36.769Z,13.97
2023-02-14T18:28:05.108Z,13.97
2023-02-14T18:30:33.272Z,14.00
2023-02-14T18:33:01.446Z,12.43
2023-02-14T18:35:29.589Z,13.47
2023-02-14T18:37:57.849Z,14.03
2023-02-14T18:40:26.746Z,13.13
2023-02-14T18:42:56.241Z,13.00
2023-02-14T18:45:25.110Z,12.83
2023-02-14T18:47:53.400Z,13.00
2023-02-14T18:50:21.729Z,14.23
2023-02-14T18:52:49.935Z,14.97
2023-02-14T18:55:18.159Z,13.10
2023-02-14T18:57:46.343Z,14.47
2023-02-14T19:00:16.600Z,13.90
2023-02-14T19:02:44.737Z,14.17
2023-02-14T19:05:13.821Z,14.57
2023-02-14T19:07:41.970Z,13.23
2023-02-14T19:10:11.065Z,14.20
2023-02-14T19:12:39.236Z,15.33
2023-02-14T19:15:07.781Z,14.37
2023-02-14T19:17:38.917Z,14.97
2023-02-14T19:20:08.573Z,14.80
2023-02-14T19:22:39.266Z,15.60
2023-02-14T19:25:07.803Z,16.00
2023-02-14T19:27:36.945Z,15.67
2023-02-14T19:30:06.090Z,15.10
2023-02-14T19:32:34.301Z,15.53
2023-02-14T19:35:03.803Z,15.47
2023-02-14T19:37:31.947Z,15.53
2023-02-14T19:40:00.152Z,15.17
2023-02-14T19:42:28.336Z,15.13
2023-02-14T19:44:56.484Z,15.73
2023-02-14T19:47:36.518Z,14.67
2023-02-14T19:50:14.565Z,14.70
2023-02-14T19:52:43.804Z,15.80
2023-02-14T19:55:18.470Z,16.63
2023-02-14T19:57:47.807Z,15.43
2023-02-14T20:00:17.064Z,16.23
2023-02-14T20:02:48.051Z,16.33
2023-02-14T20:05:18.057Z,16.57
2023-02-14T20:07:49.090Z,15.40
2023-02-14T20:10:17.262Z,16.17
2023-02-14T20:12:45.551Z,16.23
2023-02-14T20:15:13.839Z,17.30
2023-02-14T20:17:42.096Z,15.97
2023-02-14T20:20:13.577Z,15.27
2023-02-14T20:22:43.171Z,13.77
2023-02-14T20:25:11.343Z,14.27
2023-02-14T20:27:39.667Z,13.50
2023-02-14T20:30:08.965Z,13.17
2023-02-14T20:32:37.221Z,12.80
2023-02-14T20:35:05.504Z,12.93
2023-02-14T20:37:33.641Z,13.33
2023-02-14T20:40:03.346Z,13.83
2023-02-14T20:42:31.709Z,12.40
2023-02-14T20:44:59.861Z,13.13
2023-02-14T20:47:28.644Z,13.40
2023-02-14T20:49:56.786Z,11.93
2023-02-14T20:52:26.893Z,12.87
2023-02-14T20:54:55.043Z,13.10
2023-02-14T20:57:24.550Z,11.87
2023-02-14T20:59:52.704Z,12.00
2023-02-14T21:02:20.878Z,11.50
2023-02-14T21:04:49.081Z,12.70
2023-02-14T21:07:17.589Z,12.60
2023-02-14T21:09:45.793Z,11.80
2023-02-14T21:12:13.950Z,12.53
2023-02-14T21:14:43.420Z,12.13
2023-02-14T21:17:11.597Z,12.17
2023-02-14T21:19:39.774Z,12.40
2023-02-14T21:22:07.908Z,13.10
2023-02-14T21:24:36.335Z,12.27
2023-02-14T21:27:04.489Z,12.30
2023-02-14T21:29:32.650Z,11.97
2023-02-14T21:32:03.697Z,11.80
2023-02-14T21:34:32.076Z,11.23
2023-02-14T21:37:00.239Z,11.70
2023-02-14T21:39:30.846Z,12.03
2023-02-14T21:41:59.656Z,12.27
2023-02-14T21:44:45.416Z,11.93
2023-02-14T21:47:14.925Z,12.70
2023-02-14T21:50:00.631Z,12.47
2023-02-14T21:52:30.135Z,11.30
2023-02-14T21:54:58.426Z,11.83
2023-02-14T21:57:26.958Z,11.90
2023-02-14T21:59:55.095Z,12.60
2023-02-14T22:02:24.586Z,12.13
2023-02-14T22:04:52.794Z,12.23
2023-02-14T22:07:20.959Z,11.90
2023-02-14T22:09:49.155Z,13.00
2023-02-14T22:12:17.321Z,13.20
2023-02-14T22:14:45.480Z,13.80
2023-02-14T22:17:13.653Z,13.60
2023-02-14T22:19:43.150Z,14.43
2023-02-14T22:22:11.284Z,13.90
2023-02-14T22:24:39.436Z,14.97
2023-02-14T22:27:07.592Z,14.77
2023-02-14T22:29:36.153Z,14.73
2023-02-14T22:32:04.745Z,15.17
2023-02-14T22:34:33.044Z,14.10
2023-02-14T22:37:02.598Z,15.77
2023-02-14T22:39:30.747Z,15.10
2023-02-14T22:41:58.940Z,16.10
2023-02-14T22:44:27.195Z,15.97
2023-02-14T22:46:55.432Z,16.27
2023-02-14T22:49:23.592Z,15.27
2023-02-14T22:51:51.843Z,14.80
2023-02-14T22:54:21.385Z,16.57
2023-02-14T22:56:50.909Z,16.73
2023-02-14T22:59:20.151Z,14.93
2023-02-14T23:01:48.477Z,15.63
2023-02-14T23:04:17.245Z,15.00
2023-02-14T23:06:45.505Z,14.43
2023-02-14T23:09:14.148Z,14.70
2023-02-14T23:11:44.975Z,15.47
2023-02-14T23:14:31.413Z,14.60
2023-02-14T23:17:17.494Z,16.47
2023-02-14T23:20:04.301Z,15.30
2023-02-14T23:22:33.325Z,16.80
2023-02-14T23:25:03.437Z,13.57
2023-02-14T23:27:34.032Z,14.53
2023-02-14T23:30:02.874Z,15.20
2023-02-14T23:32:31.076Z,17.80
2023-02-14T23:34:59.869Z,17.03
2023-02-14T23:37:28.044Z,17.87
2023-02-14T23:39:56.192Z,19.17
2023-02-14T23:42:24.358Z,18.50
2023-02-14T23:44:53.831Z,17.40
2023-02-14T23:47:22.004Z,16.83
2023-02-14T23:49:50.157Z,16.60
2023-02-14T23:52:18.314Z,17.63
2023-02-14T23:54:46.450Z,17.43
2023-02-14T23:57:14.593Z,17.27
2023-02-14T23:59:42.749Z,16.23
